createdAt,value
2022-08-09T00:04:05.935Z,17.10
2022-08-09T00:08:33.230Z,17.00
2022-08-09T00:12:56.373Z,17.00
2022-08-09T00:18:04.402Z,16.90
2022-08-09T00:21:55.968Z,16.90
2022-08-09T00:26:12.510Z,16.90
2022-08-09T00:30:28.770Z,16.90
2022-08-09T00:34:51.984Z,16.90
2022-08-09T00:39:10.905Z,16.90
2022-08-09T00:44:10.159Z,16.90
2022-08-09T00:48:23.492Z,16.90
2022-08-09T00:52:43.855Z,16.90
2022-08-09T00:57:08.842Z,16.90
2022-08-09T01:01:44.294Z,16.90
2022-08-09T01:06:17.802Z,16.80
2022-08-09T01:10:47.309Z,16.80
2022-08-09T01:15:17.665Z,16.80
2022-08-09T01:20:01.677Z,16.80
2022-08-09T01:24:28.549Z,16.70
2022-08-09T01:29:03.134Z,16.70
2022-08-09T01:33:21.690Z,16.70
2022-08-09T01:38:05.662Z,16.60
2022-08-09T01:42:13.941Z,16.60
2022-08-09T01:46:33.855Z,16.60
2022-08-09T01:50:54.953Z,16.50
2022-08-09T01:55:12.254Z,16.40
2022-08-09T01:59:32.487Z,16.40
2022-08-09T02:03:55.419Z,16.40
2022-08-09T02:08:40.559Z,16.30
2022-08-09T02:12:51.646Z,16.30
2022-08-09T02:17:14.968Z,16.20
2022-08-09T02:21:55.782Z,16.20
2022-08-09T02:26:24.937Z,16.10
2022-08-09T02:30:46.513Z,16.10
2022-08-09T02:35:17.421Z,16.10
2022-08-09T02:39:41.840Z,16.00
2022-08-09T02:44:10.366Z,16.00
2022-08-09T02:49:01.591Z,16.00
2022-08-09T02:53:26.675Z,16.00
2022-08-09T02:58:00.548Z,15.90
2022-08-09T03:02:21.478Z,15.90
2022-08-09T03:06:43.758Z,15.90
2022-08-09T03:11:01.878Z,15.80
2022-08-09T03:15:18.664Z,15.70
2022-08-09T03:19:59.204Z,15.70
2022-08-09T03:24:31.286Z,15.70
2022-08-09T03:28:55.694Z,15.60
2022-08-09T03:33:19.050Z,15.60
2022-08-09T03:37:56.518Z,15.70
2022-08-09T03:42:07.151Z,15.60
2022-08-09T03:46:29.408Z,15.60
2022-08-09T03:50:45.980Z,15.60
2022-08-09T03:55:07.668Z,15.60
2022-08-09T03:59:27.211Z,15.60
2022-08-09T04:04:02.265Z,15.60
2022-08-09T04:08:19.302Z,15.60
2022-08-09T04:12:47.707Z,15.60
2022-08-09T04:17:03.078Z,15.60
2022-08-09T04:21:16.469Z,15.60
2022-08-09T04:25:32.926Z,15.70
2022-08-09T04:29:49.658Z,15.80
2022-08-09T04:34:03.424Z,15.90
2022-08-09T04:38:16.554Z,16.20
2022-08-09T04:42:35.368Z,17.10
2022-08-09T04:46:59.173Z,17.80
2022-08-09T04:51:20.545Z,18.00
2022-08-09T04:55:39.637Z,18.40
2022-08-09T04:59:57.119Z,18.40
2022-08-09T05:04:10.597Z,18.50
2022-08-09T05:08:28.237Z,18.60
2022-08-09T05:12:42.476Z,18.90
2022-08-09T05:17:00.094Z,19.20
2022-08-09T05:21:22.964Z,19.30
2022-08-09T05:25:38.247Z,19.50
2022-08-09T05:29:51.329Z,19.50
2022-08-09T05:34:05.871Z,19.40
2022-08-09T05:38:21.846Z,19.50
2022-08-09T05:42:35.739Z,19.70
2022-08-09T05:46:50.488Z,19.50
2022-08-09T05:51:30.260Z,19.50
2022-08-09T05:55:39.539Z,19.50
2022-08-09T05:59:55.603Z,19.40
2022-08-09T06:04:08.717Z,19.30
2022-08-09T06:08:26.662Z,19.40
2022-08-09T06:12:41.504Z,19.30
2022-08-09T06:17:00.564Z,19.60
2022-08-09T06:21:22.831Z,20.00
2022-08-09T06:25:37.271Z,20.00
2022-08-09T06:30:04.468Z,20.00
2022-08-09T06:34:31.716Z,20.40
2022-08-09T06:38:49.989Z,20.50
2022-08-09T06:43:07.657Z,20.70
2022-08-09T06:47:24.148Z,20.90
2022-08-09T06:51:40.195Z,21.10
2022-08-09T06:55:55.772Z,21.20
2022-08-09T07:00:55.053Z,21.10
2022-08-09T07:04:47.083Z,21.00
2022-08-09T07:09:00.178Z,21.10
2022-08-09T07:13:27.300Z,21.20
2022-08-09T07:17:56.161Z,21.20
2022-08-09T07:22:15.713Z,21.30
2022-08-09T07:26:31.285Z,21.30
2022-08-09T07:30:44.362Z,21.40
2022-08-09T07:34:58.847Z,21.40
2022-08-09T07:39:12.506Z,21.60
2022-08-09T07:43:33.789Z,21.50
2022-08-09T07:48:04.424Z,21.60
2022-08-09T07:52:19.473Z,21.80
2022-08-09T07:56:34.467Z,21.70
2022-08-09T08:00:55.798Z,21.70
2022-08-09T08:05:19.681Z,21.90
2022-08-09T08:09:39.783Z,22.10
2022-08-09T08:13:59.509Z,22.30
2022-08-09T08:18:14.293Z,22.50
2022-08-09T08:22:28.636Z,22.20
2022-08-09T08:26:55.467Z,22.30
2022-08-09T08:31:15.056Z,22.40
2022-08-09T08:35:37.146Z,22.70
2022-08-09T08:40:01.620Z,22.90
2022-08-09T08:44:27.010Z,22.90
2022-08-09T08:48:51.546Z,22.50
2022-08-09T08:53:15.710Z,22.50
2022-08-09T08:57:29.851Z,22.60
2022-08-09T09:01:57.089Z,22.60
2022-08-09T09:06:12.847Z,22.80
2022-08-09T09:10:29.196Z,23.00
2022-08-09T09:14:44.500Z,23.20
2022-08-09T09:19:29.156Z,23.50
2022-08-09T09:23:42.246Z,23.70
2022-08-09T09:28:39.245Z,23.90
2022-08-09T09:33:16.379Z,24.00
2022-08-09T09:37:34.417Z,24.20
2022-08-09T09:41:50.964Z,24.40
2022-08-09T09:50:50.858Z,24.70
2022-08-09T09:55:27.613Z,25.00
2022-08-09T10:00:31.349Z,25.20
2022-08-09T10:06:03.378Z,25.50
2022-08-09T10:10:36.556Z,25.50
2022-08-09T10:15:25.589Z,25.90
2022-08-09T10:20:27.805Z,26.00
2022-08-09T10:24:54.021Z,26.30
2022-08-09T10:29:37.237Z,26.40
2022-08-09T10:34:09.822Z,26.50
2022-08-09T10:43:46.896Z,26.40
2022-08-09T10:49:10.486Z,26.80
2022-08-09T11:28:30.670Z,29.20
2022-08-09T11:37:40.877Z,29.10
2022-08-09T11:42:03.514Z,29.50
2022-08-09T11:46:28.864Z,29.70
2022-08-09T11:52:54.174Z,30.10
2022-08-09T11:55:52.425Z,30.40
2022-08-09T12:00:16.426Z,30.60
2022-08-09T12:04:37.840Z,30.70
2022-08-09T12:08:58.008Z,30.90
2022-08-09T12:14:08.377Z,30.60
2022-08-09T12:17:54.873Z,30.80
2022-08-09T12:22:11.810Z,31.10
2022-08-09T12:26:27.349Z,31.60
2022-08-09T12:30:45.765Z,31.80
2022-08-09T12:35:12.409Z,31.70
2022-08-09T12:39:31.601Z,31.80
2022-08-09T12:44:06.325Z,32.20
2022-08-09T12:48:33.154Z,32.50
2022-08-09T12:53:08.311Z,32.30
2022-08-09T12:57:41.771Z,31.70
2022-08-09T13:02:12.004Z,32.20
2022-08-09T13:06:33.904Z,32.40
2022-08-09T13:11:22.879Z,32.50
2022-08-09T13:16:00.963Z,32.40
2022-08-09T13:22:33.795Z,32.40
2022-08-09T13:25:55.015Z,32.70
2022-08-09T13:30:51.592Z,33.20
2022-08-09T13:35:02.953Z,33.60
2022-08-09T13:56:41.472Z,34.40
2022-08-09T14:01:00.705Z,34.60
2022-08-09T14:05:57.161Z,35.00
2022-08-09T14:09:53.120Z,35.20
2022-08-09T14:14:22.045Z,35.70
2022-08-09T14:18:38.810Z,36.00
2022-08-09T14:22:57.842Z,36.40
2022-08-09T14:27:20.400Z,37.00
2022-08-09T14:31:52.233Z,37.30
2022-08-09T14:36:20.725Z,37.70
2022-08-09T14:41:01.513Z,38.30
2022-08-09T14:46:40.307Z,38.90
2022-08-09T14:49:49.090Z,39.70
2022-08-09T14:54:16.863Z,40.00
2022-08-09T14:58:37.999Z,40.80
2022-08-09T15:02:58.380Z,41.20
2022-08-09T15:07:14.207Z,41.40
2022-08-09T15:11:30.463Z,42.00
2022-08-09T15:15:46.221Z,42.10
2022-08-09T15:20:02.282Z,42.00
2022-08-09T15:24:23.365Z,42.10
2022-08-09T15:28:41.920Z,42.10
2022-08-09T15:32:57.082Z,42.30
2022-08-09T15:37:36.926Z,42.50
2022-08-09T15:41:51.614Z,42.40
2022-08-09T15:46:28.278Z,42.60
2022-08-09T15:50:43.722Z,42.90
2022-08-09T15:54:57.519Z,42.90
2022-08-09T15:59:11.756Z,42.60
2022-08-09T16:03:29.711Z,42.50
2022-08-09T16:07:53.525Z,42.00
2022-08-09T16:12:11.193Z,42.30
2022-08-09T16:16:28.424Z,42.40
2022-08-09T16:20:41.853Z,42.00
2022-08-09T16:24:59.574Z,41.90
2022-08-09T16:29:16.441Z,42.00
2022-08-09T16:33:34.948Z,41.70
2022-08-09T16:37:54.707Z,41.30
2022-08-09T16:42:11.161Z,41.30
2022-08-09T16:46:28.174Z,41.20
2022-08-09T16:50:41.707Z,40.90
2022-08-09T16:55:15.836Z,40.60
2022-08-09T16:59:35.490Z,40.20
2022-08-09T17:08:43.270Z,39.70
2022-08-09T17:13:03.064Z,39.00
2022-08-09T17:17:26.884Z,38.80
2022-08-09T17:21:54.682Z,38.40
2022-08-09T17:26:31.676Z,37.90
2022-08-09T17:30:51.676Z,37.40
2022-08-09T17:35:12.068Z,36.90
2022-08-09T17:39:25.972Z,36.60
2022-08-09T17:44:37.863Z,36.20
2022-08-09T17:48:32.264Z,35.70
2022-08-09T17:52:49.298Z,35.20
2022-08-09T17:57:04.989Z,34.20
2022-08-09T18:01:23.228Z,33.40
2022-08-09T18:05:43.662Z,32.60
2022-08-09T18:10:04.771Z,31.50
2022-08-09T18:14:22.774Z,30.40
2022-08-09T18:23:05.380Z,28.90
2022-08-09T18:28:03.594Z,28.20
2022-08-09T18:31:55.570Z,27.70
2022-08-09T18:36:14.207Z,27.30
2022-08-09T18:40:27.997Z,26.90
2022-08-09T18:44:44.310Z,26.60
2022-08-09T18:49:01.786Z,26.30
2022-08-09T18:53:16.683Z,26.10
2022-08-09T18:57:38.460Z,25.90
2022-08-09T19:01:58.241Z,25.60
2022-08-09T19:06:15.030Z,25.40
2022-08-09T19:10:28.778Z,25.30
2022-08-09T19:14:43.373Z,25.20
2022-08-09T19:18:58.291Z,25.10
2022-08-09T19:23:16.516Z,25.00
2022-08-09T19:27:31.648Z,24.80
2022-08-09T19:31:46.008Z,24.70
2022-08-09T19:36:07.180Z,24.60
2022-08-09T19:40:34.274Z,24.40
2022-08-09T19:44:50.928Z,24.30
2022-08-09T19:50:10.378Z,24.20
2022-08-09T19:53:45.305Z,24.10
2022-08-09T19:58:00.311Z,24.00
2022-08-09T20:04:10.798Z,23.90
2022-08-09T20:23:23.058Z,24.10
2022-08-09T20:27:44.991Z,24.10
2022-08-09T20:32:29.275Z,24.10
2022-08-09T20:36:43.653Z,24.10
2022-08-09T20:41:01.342Z,24.10
2022-08-09T20:46:00.403Z,24.00
2022-08-09T20:49:56.628Z,24.00
2022-08-09T20:54:17.013Z,24.10
2022-08-09T20:58:38.127Z,24.00
2022-08-09T21:02:55.962Z,24.00
2022-08-09T21:07:17.178Z,24.10
2022-08-09T21:16:19.236Z,23.90
2022-08-09T21:20:32.958Z,23.80
2022-08-09T21:25:06.310Z,23.10
2022-08-09T21:29:22.650Z,22.70
2022-08-09T21:33:37.853Z,22.30
2022-08-09T21:37:59.723Z,22.10
2022-08-09T21:42:13.469Z,21.90
2022-08-09T21:46:28.719Z,21.70
2022-08-09T21:50:49.647Z,21.60
2022-08-09T21:55:05.349Z,21.50
2022-08-09T21:59:18.538Z,21.40
2022-08-09T22:03:35.987Z,21.20
2022-08-09T22:08:01.459Z,21.10
2022-08-09T22:12:18.373Z,21.00
2022-08-09T22:16:37.084Z,20.90
2022-08-09T22:20:52.672Z,20.80
2022-08-09T22:26:09.723Z,20.80
2022-08-09T22:29:50.191Z,20.70
2022-08-09T22:34:03.627Z,20.60
2022-08-09T22:38:29.194Z,20.50
2022-08-09T22:42:44.617Z,20.50
2022-08-09T22:48:14.400Z,20.40
2022-08-09T22:51:31.996Z,20.30
2022-08-09T22:56:30.563Z,20.30
2022-08-09T23:00:20.764Z,20.30
2022-08-09T23:04:34.347Z,20.20
2022-08-09T23:08:51.784Z,20.20
2022-08-09T23:13:06.359Z,20.10
2022-08-09T23:17:28.333Z,20.10
2022-08-09T23:21:41.637Z,20.10
2022-08-09T23:25:55.812Z,20.00
2022-08-09T23:30:11.805Z,19.90
2022-08-09T23:34:25.216Z,19.90
2022-08-09T23:38:49.018Z,19.90
2022-08-09T23:43:06.160Z,19.80
2022-08-09T23:47:21.311Z,19.80
2022-08-09T23:51:34.715Z,19.70
2022-08-09T23:55:49.841Z,19.70
